Time;durP1;ratioP1;P1;durP2;ratioP2;P2;SDS_P1;SDS_P2;PMS_P1;PMS_P2;Temp;Humidity;BMP_temperature;BMP_pressure;BME280_temperature;BME280_humidity;BME280_pressure;Samples;Min_cycle;Max_cycle;Signal;HPM_P1;HPM_P2
2022/12/12 00:01:42;;;;;;;;;26.00;21.50;;;;;;;;5079830;28;51157;-54
2022/12/12 00:04:26;;;;;;;;;30.25;23.50;;;;;;;;5079576;28;51096;-54
2022/12/12 00:07:10;;;;;;;;;28.50;22.50;;;;;;;;5079344;28;50988;-56
2022/12/12 00:09:55;;;;;;;;;30.50;22.75;;;;;;;;5079804;28;51143;-56
2022/12/12 00:12:39;;;;;;;;;20.75;20.75;;;;;;;;5079410;28;51399;-53
2022/12/12 00:15:24;;;;;;;;;24.75;21.00;;;;;;;;5079324;28;51118;-53
2022/12/12 00:18:08;;;;;;;;;22.00;19.50;;;;;;;;5079188;28;51184;-56
2022/12/12 00:20:54;;;;;;;;;24.00;19.50;;;;;;;;5079673;28;51153;-56
2022/12/12 00:23:38;;;;;;;;;23.50;19.50;;;;;;;;5083319;27;51069;-55
2022/12/12 00:26:22;;;;;;;;;26.25;24.50;;;;;;;;5083098;27;51063;-55
2022/12/12 00:29:07;;;;;;;;;27.50;22.75;;;;;;;;5083003;27;51213;-55
2022/12/12 00:31:51;;;;;;;;;27.50;20.75;;;;;;;;5083067;27;51072;-57
2022/12/12 00:34:36;;;;;;;;;29.50;24.00;;;;;;;;5083395;27;51144;-56
2022/12/12 00:37:20;;;;;;;;;22.50;19.50;;;;;;;;5082682;27;50971;-55
2022/12/12 00:40:05;;;;;;;;;26.50;20.00;;;;;;;;5082881;27;51105;-53
2022/12/12 00:42:49;;;;;;;;;25.50;21.75;;;;;;;;5082882;27;51037;-52
2022/12/12 00:45:35;;;;;;;;;22.00;21.25;;;;;;;;5083140;27;51181;-53
2022/12/12 00:48:19;;;;;;;;;22.00;20.75;;;;;;;;5082277;27;51397;-56
2022/12/12 00:51:06;;;;;;;;;21.25;19.25;;;;;;;;5096213;27;52489;-56
2022/12/12 00:53:50;;;;;;;;;28.75;18.00;;;;;;;;5082760;27;51091;-57
2022/12/12 00:56:34;;;;;;;;;31.50;24.50;;;;;;;;5082175;27;51112;-53
2022/12/12 00:59:19;;;;;;;;;23.75;21.50;;;;;;;;5082642;27;51184;-54
2022/12/12 01:02:03;;;;;;;;;30.00;23.50;;;;;;;;5082421;27;51528;-54
2022/12/12 01:04:48;;;;;;;;;23.75;19.50;;;;;;;;5082665;27;51157;-56
2022/12/12 01:07:32;;;;;;;;;25.50;19.75;;;;;;;;5082121;27;51090;-57
2022/12/12 01:10:17;;;;;;;;;25.25;19.50;;;;;;;;5082452;27;51014;-55
2022/12/12 01:13:01;;;;;;;;;26.50;21.75;;;;;;;;5082238;27;51551;-56
2022/12/12 01:15:45;;;;;;;;;26.75;22.25;;;;;;;;5082416;27;51137;-56
2022/12/12 01:18:30;;;;;;;;;23.50;20.25;;;;;;;;5082268;27;51098;-56
2022/12/12 01:21:15;;;;;;;;;22.25;22.25;;;;;;;;5082060;27;51035;-55
2022/12/12 01:24:00;;;;;;;;;24.25;20.75;;;;;;;;5082393;27;51167;-55
2022/12/12 01:26:44;;;;;;;;;23.25;21.50;;;;;;;;5081982;27;51511;-55
2022/12/12 01:29:29;;;;;;;;;21.00;19.50;;;;;;;;5081737;27;51109;-52
2022/12/12 01:32:13;;;;;;;;;24.00;22.00;;;;;;;;5081959;27;51109;-55
2022/12/12 01:34:57;;;;;;;;;24.50;22.75;;;;;;;;5095214;27;50994;-57
2022/12/12 01:37:42;;;;;;;;;26.50;20.25;;;;;;;;5081603;27;51322;-56
2022/12/12 01:40:27;;;;;;;;;23.00;19.50;;;;;;;;5081373;27;51469;-55
2022/12/12 01:43:12;;;;;;;;;24.00;20.00;;;;;;;;5081820;27;51416;-54
2022/12/12 01:45:57;;;;;;;;;25.00;20.75;;;;;;;;5081576;27;51135;-57
2022/12/12 01:48:44;;;;;;;;;25.25;21.25;;;;;;;;5081741;27;51026;-54
2022/12/12 01:51:29;;;;;;;;;24.50;20.75;;;;;;;;5081267;27;51181;-55
2022/12/12 01:54:16;;;;;;;;;25.25;21.75;;;;;;;;5081509;27;51140;-56
2022/12/12 01:57:04;;;;;;;;;24.25;18.75;;;;;;;;5081385;27;51151;-57
2022/12/12 01:59:48;;;;;;;;;27.00;21.25;;;;;;;;5081515;27;51148;-56
2022/12/12 02:02:32;;;;;;;;;25.00;22.25;;;;;;;;5080970;27;51513;-53
2022/12/12 02:05:21;;;;;;;;;26.00;20.50;;;;;;;;5081310;27;51062;-55
2022/12/12 02:08:07;;;;;;;;;20.25;18.25;;;;;;;;5081447;27;51374;-54
2022/12/12 02:10:51;;;;;;;;;28.00;19.25;;;;;;;;5080822;27;51225;-57
2022/12/12 02:13:36;;;;;;;;;23.50;18.00;;;;;;;;5081174;27;50987;-56
2022/12/12 02:16:40;;;;;;;;;20.75;20.25;;;;;;;;5081168;27;51090;-56
2022/12/12 02:19:36;;;;;;;;;19.25;16.75;;;;;;;;5081013;27;51161;-54
2022/12/12 02:22:21;;;;;;;;;24.75;19.50;;;;;;;;5081073;27;51153;-55
2022/12/12 02:25:20;;;;;;;;;19.25;19.25;;;;;;;;5081218;27;51121;-55
2022/12/12 02:28:23;;;;;;;;;22.75;18.75;;;;;;;;5080702;27;51183;-54
2022/12/12 02:31:13;;;;;;;;;25.50;20.00;;;;;;;;5080850;27;51051;-53
2022/12/12 02:34:12;;;;;;;;;23.75;22.00;;;;;;;;5080878;27;51451;-57
2022/12/12 02:36:57;;;;;;;;;23.25;20.50;;;;;;;;5080282;27;51082;-54
2022/12/12 02:39:50;;;;;;;;;25.50;22.25;;;;;;;;5080680;27;51124;-56
2022/12/12 02:42:34;;;;;;;;;22.25;18.75;;;;;;;;5080342;27;51170;-55
2022/12/12 02:45:25;;;;;;;;;25.50;19.25;;;;;;;;5079861;27;51521;-53
2022/12/12 02:48:12;;;;;;;;;29.50;22.25;;;;;;;;5080352;27;51121;-54
2022/12/12 02:50:58;;;;;;;;;24.75;21.00;;;;;;;;5080622;27;51112;-52
2022/12/12 02:53:42;;;;;;;;;21.00;16.75;;;;;;;;5080050;27;51170;-56
2022/12/12 02:56:39;;;;;;;;;21.25;18.75;;;;;;;;5080565;27;51114;-56
2022/12/12 02:59:25;;;;;;;;;20.00;17.50;;;;;;;;5080619;27;51510;-54
2022/12/12 03:02:18;;;;;;;;;21.00;19.75;;;;;;;;5080266;27;51157;-56
2022/12/12 03:08:41;;;;;;;;;23.50;18.00;;;;;;;;5059767;28;51520;-55
2022/12/12 03:11:37;;;;;;;;;26.75;20.50;;;;;;;;5038428;28;51371;-54
2022/12/12 03:14:34;;;;;;;;;21.50;18.75;;;;;;;;5053384;28;51468;-52
2022/12/12 03:17:24;;;;;;;;;24.50;22.25;;;;;;;;5060168;28;51095;-57
2022/12/12 03:20:46;;;;;;;;;22.25;19.00;;;;;;;;5059532;28;51534;-57
2022/12/12 03:23:36;;;;;;;;;21.75;18.50;;;;;;;;5032052;28;51187;-54
2022/12/12 03:26:27;;;;;;;;;20.50;17.00;;;;;;;;5037413;28;51412;-56
2022/12/12 03:29:16;;;;;;;;;25.25;20.00;;;;;;;;5076692;27;51313;-56
2022/12/12 03:32:06;;;;;;;;;26.50;22.75;;;;;;;;5080098;27;51022;-56
2022/12/12 03:34:54;;;;;;;;;22.25;17.75;;;;;;;;5079737;28;51077;-57
2022/12/12 03:37:47;;;;;;;;;25.00;16.75;;;;;;;;5080071;28;51196;-54
2022/12/12 03:40:51;;;;;;;;;27.00;20.25;;;;;;;;5079805;28;51029;-55
2022/12/12 03:43:42;;;;;;;;;22.25;19.50;;;;;;;;5080077;28;51041;-54
2022/12/12 03:46:33;;;;;;;;;20.75;19.75;;;;;;;;5079840;28;51070;-56
2022/12/12 03:49:20;;;;;;;;;22.50;19.75;;;;;;;;5079743;28;51057;-55
2022/12/12 03:52:16;;;;;;;;;22.25;18.25;;;;;;;;5079775;28;51076;-56
2022/12/12 03:55:07;;;;;;;;;20.00;19.00;;;;;;;;5079530;28;51118;-54
2022/12/12 03:57:58;;;;;;;;;25.25;20.75;;;;;;;;5083150;27;51006;-56
2022/12/12 04:00:44;;;;;;;;;24.25;21.25;;;;;;;;5083504;27;51018;-57
2022/12/12 04:03:34;;;;;;;;;27.25;22.00;;;;;;;;5083765;27;51175;-55
2022/12/12 04:06:28;;;;;;;;;21.75;20.25;;;;;;;;5083163;27;51096;-57
2022/12/12 04:15:58;;;;;;;;;25.75;20.50;;;;;;;;5083498;27;51029;-55
2022/12/12 04:18:48;;;;;;;;;24.00;19.75;;;;;;;;5096940;27;51584;-56
2022/12/12 04:24:35;;;;;;;;;31.00;23.50;;;;;;;;5083695;27;51114;-54
2022/12/12 04:27:23;;;;;;;;;24.75;22.25;;;;;;;;5082739;27;51076;-55
2022/12/12 04:30:10;;;;;;;;;26.25;22.25;;;;;;;;5083341;27;51456;-55
2022/12/12 04:33:05;;;;;;;;;23.00;20.00;;;;;;;;5083030;27;51220;-55
2022/12/12 04:35:51;;;;;;;;;24.25;22.00;;;;;;;;5083322;27;51054;-55
2022/12/12 04:38:36;;;;;;;;;30.00;21.75;;;;;;;;5082704;27;51034;-56
2022/12/12 04:41:21;;;;;;;;;26.00;21.25;;;;;;;;5082776;27;50979;-54
2022/12/12 04:44:09;;;;;;;;;24.25;22.25;;;;;;;;5083133;27;51204;-55
2022/12/12 04:46:55;;;;;;;;;27.50;21.50;;;;;;;;5082728;27;51152;-55
2022/12/12 04:49:41;;;;;;;;;30.75;20.25;;;;;;;;5083186;27;51082;-57
2022/12/12 04:52:27;;;;;;;;;29.75;22.75;;;;;;;;5081016;27;51350;-53
2022/12/12 04:55:11;;;;;;;;;26.50;21.25;;;;;;;;5062498;28;51514;-55
2022/12/12 04:57:55;;;;;;;;;25.25;22.00;;;;;;;;5062217;28;51050;-56
2022/12/12 05:00:46;;;;;;;;;24.50;23.50;;;;;;;;5062146;28;51058;-56
2022/12/12 05:03:54;;;;;;;;;27.00;22.25;;;;;;;;5061930;28;51545;-57
2022/12/12 05:06:50;;;;;;;;;35.25;31.25;;;;;;;;5061763;28;51035;-53
2022/12/12 05:09:34;;;;;;;;;50.00;38.25;;;;;;;;5060842;28;51092;-57
2022/12/12 05:12:19;;;;;;;;;55.00;43.50;;;;;;;;5062098;28;51113;-56
2022/12/12 05:15:05;;;;;;;;;59.00;45.75;;;;;;;;5062475;28;51023;-56
2022/12/12 05:18:07;;;;;;;;;57.25;45.50;;;;;;;;5061869;28;51078;-57
2022/12/12 05:20:52;;;;;;;;;58.00;46.00;;;;;;;;5061825;28;51118;-55
2022/12/12 05:23:36;;;;;;;;;59.00;45.50;;;;;;;;5061273;28;51168;-55
2022/12/12 05:26:22;;;;;;;;;63.25;48.75;;;;;;;;5062055;28;51033;-53
2022/12/12 05:29:07;;;;;;;;;62.50;50.50;;;;;;;;5061659;28;51122;-53
2022/12/12 05:31:51;;;;;;;;;66.50;51.50;;;;;;;;5061613;28;51020;-58
2022/12/12 05:34:35;;;;;;;;;62.00;49.25;;;;;;;;5061642;28;51138;-56
2022/12/12 05:37:20;;;;;;;;;61.00;48.25;;;;;;;;5061548;28;51155;-58
2022/12/12 05:40:05;;;;;;;;;65.25;49.25;;;;;;;;5061840;28;51142;-53
2022/12/12 05:42:50;;;;;;;;;60.50;45.25;;;;;;;;5061254;28;51480;-54
2022/12/12 05:45:34;;;;;;;;;63.75;49.50;;;;;;;;5061433;28;51620;-53
2022/12/12 05:48:18;;;;;;;;;62.00;50.25;;;;;;;;5061241;28;51114;-53
2022/12/12 05:51:03;;;;;;;;;75.75;61.50;;;;;;;;5054370;28;51138;-55
2022/12/12 05:53:47;;;;;;;;;69.25;53.00;;;;;;;;5060896;28;51046;-55
2022/12/12 05:56:32;;;;;;;;;67.00;52.75;;;;;;;;5061183;28;51110;-53
2022/12/12 05:59:16;;;;;;;;;72.00;55.75;;;;;;;;5061106;28;51585;-57
2022/12/12 06:02:01;;;;;;;;;63.25;50.50;;;;;;;;5060914;28;51086;-54
2022/12/12 06:04:45;;;;;;;;;63.00;49.50;;;;;;;;5061194;28;51068;-56
2022/12/12 06:07:29;;;;;;;;;68.25;52.00;;;;;;;;5076944;27;51003;-55
2022/12/12 06:10:14;;;;;;;;;63.50;50.25;;;;;;;;5081002;27;51236;-55
2022/12/12 06:12:58;;;;;;;;;62.75;48.00;;;;;;;;5080843;27;51082;-55
2022/12/12 06:15:42;;;;;;;;;57.50;45.50;;;;;;;;5081193;27;51222;-55
2022/12/12 06:18:27;;;;;;;;;63.00;48.25;;;;;;;;5065733;27;51465;-55
2022/12/12 06:21:12;;;;;;;;;61.25;48.75;;;;;;;;5060609;28;51058;-54
2022/12/12 06:23:56;;;;;;;;;71.75;55.75;;;;;;;;5060546;28;51686;-57
2022/12/12 06:26:40;;;;;;;;;62.75;49.75;;;;;;;;5060237;28;51143;-56
2022/12/12 06:29:24;;;;;;;;;70.25;53.00;;;;;;;;5060754;28;51133;-55
2022/12/12 06:32:09;;;;;;;;;74.75;57.50;;;;;;;;5060343;28;51553;-56
2022/12/12 06:34:54;;;;;;;;;65.00;49.00;;;;;;;;5060272;28;51194;-54
2022/12/12 06:37:39;;;;;;;;;62.75;48.00;;;;;;;;5060400;28;51018;-56
2022/12/12 06:40:23;;;;;;;;;65.25;50.75;;;;;;;;5065443;27;51177;-56
2022/12/12 06:43:08;;;;;;;;;63.50;49.00;;;;;;;;5060082;28;51424;-54
2022/12/12 06:45:52;;;;;;;;;54.50;40.00;;;;;;;;5069546;27;51124;-54
2022/12/12 06:48:36;;;;;;;;;39.50;24.00;;;;;;;;5080628;27;51653;-56
2022/12/12 06:51:26;;;;;;;;;61.25;47.75;;;;;;;;5093697;27;50950;-56
2022/12/12 07:06:57;;;;;;;;;65.25;50.00;;;;;;;;4296431;32;51086;-54
2022/12/12 07:09:41;;;;;;;;;62.25;48.50;;;;;;;;5056209;28;51015;-54
2022/12/12 07:12:26;;;;;;;;;60.25;47.25;;;;;;;;5056978;28;51132;-53
2022/12/12 07:15:11;;;;;;;;;65.75;50.50;;;;;;;;5057049;28;51226;-53
2022/12/12 07:17:55;;;;;;;;;65.25;47.50;;;;;;;;5056940;28;51178;-55
2022/12/12 07:20:44;;;;;;;;;66.50;50.50;;;;;;;;5056897;28;51078;-52
2022/12/12 07:23:29;;;;;;;;;68.50;53.75;;;;;;;;5057102;28;51082;-56
2022/12/12 07:26:14;;;;;;;;;61.75;47.25;;;;;;;;5056547;28;51092;-55
2022/12/12 07:28:59;;;;;;;;;59.25;47.25;;;;;;;;5056681;28;51623;-55
2022/12/12 07:31:43;;;;;;;;;64.00;48.75;;;;;;;;5056565;28;51380;-53
2022/12/12 07:34:28;;;;;;;;;61.75;47.25;;;;;;;;5056843;28;50979;-56
2022/12/12 07:37:12;;;;;;;;;63.00;48.75;;;;;;;;5056429;28;50981;-56
2022/12/12 07:39:57;;;;;;;;;62.25;49.00;;;;;;;;5069757;28;51477;-56
2022/12/12 07:42:41;;;;;;;;;67.50;53.50;;;;;;;;5056855;28;51767;-56
2022/12/12 07:45:26;;;;;;;;;69.00;56.75;;;;;;;;5056366;28;51104;-56
2022/12/12 07:48:10;;;;;;;;;67.00;53.00;;;;;;;;5056691;28;51117;-57
2022/12/12 07:50:54;;;;;;;;;61.50;47.50;;;;;;;;5056067;28;51420;-56
2022/12/12 07:53:39;;;;;;;;;66.00;49.50;;;;;;;;5056433;28;51247;-56
2022/12/12 07:56:23;;;;;;;;;64.00;49.25;;;;;;;;5056249;28;51121;-56
2022/12/12 07:59:07;;;;;;;;;59.50;46.00;;;;;;;;5056182;28;51221;-55
2022/12/12 08:01:52;;;;;;;;;47.50;39.25;;;;;;;;5055881;28;51571;-55
2022/12/12 08:04:36;;;;;;;;;51.50;42.00;;;;;;;;5055805;28;51117;-57
2022/12/12 08:07:20;;;;;;;;;47.75;39.00;;;;;;;;5045027;28;53162;-57
2022/12/12 08:10:05;;;;;;;;;50.00;40.00;;;;;;;;5042284;28;51249;-56
2022/12/12 08:12:50;;;;;;;;;48.75;37.50;;;;;;;;5042501;28;51044;-55
2022/12/12 08:15:34;;;;;;;;;45.75;35.75;;;;;;;;5042330;28;51131;-56
2022/12/12 08:18:18;;;;;;;;;41.50;33.00;;;;;;;;5042421;28;51577;-55
2022/12/12 08:21:13;;;;;;;;;39.00;33.25;;;;;;;;5041848;28;51057;-56
2022/12/12 08:23:58;;;;;;;;;33.50;29.75;;;;;;;;5042566;28;51217;-56
2022/12/12 08:26:43;;;;;;;;;30.25;28.25;;;;;;;;5042141;28;51180;-57
2022/12/12 08:29:27;;;;;;;;;43.50;34.25;;;;;;;;5042301;28;51087;-56
2022/12/12 08:32:12;;;;;;;;;39.75;33.00;;;;;;;;5042071;28;51149;-56
2022/12/12 08:34:57;;;;;;;;;40.75;32.00;;;;;;;;5041615;28;51106;-57
2022/12/12 08:37:42;;;;;;;;;38.75;31.50;;;;;;;;5042225;28;51177;-56
2022/12/12 08:40:26;;;;;;;;;42.00;32.75;;;;;;;;5042108;28;51212;-56
2022/12/12 08:43:11;;;;;;;;;39.75;33.25;;;;;;;;5042032;28;51397;-56
2022/12/12 08:46:02;;;;;;;;;35.50;30.25;;;;;;;;5041670;28;51221;-58
2022/12/12 08:48:47;;;;;;;;;37.75;29.25;;;;;;;;5042178;28;51058;-57
2022/12/12 08:51:50;;;;;;;;;33.00;27.50;;;;;;;;4999600;28;51700;-55
2022/12/12 08:54:51;;;;;;;;;24.75;20.25;;;;;;;;4960215;28;51228;-57
2022/12/12 08:57:35;;;;;;;;;25.50;22.25;;;;;;;;4960173;28;51117;-57
2022/12/12 09:00:20;;;;;;;;;24.00;20.75;;;;;;;;4960051;28;51070;-57
2022/12/12 09:03:04;;;;;;;;;28.00;23.00;;;;;;;;4960408;28;51088;-57
2022/12/12 09:05:49;;;;;;;;;23.25;22.00;;;;;;;;4958556;28;51124;-57
2022/12/12 09:08:34;;;;;;;;;25.50;21.25;;;;;;;;4960169;28;51121;-57
2022/12/12 09:11:19;;;;;;;;;23.75;20.50;;;;;;;;4959933;28;51182;-57
2022/12/12 09:14:03;;;;;;;;;25.00;23.75;;;;;;;;4959633;28;51129;-57
2022/12/12 09:16:47;;;;;;;;;19.75;17.75;;;;;;;;4959740;28;51437;-57
2022/12/12 09:19:31;;;;;;;;;25.00;20.00;;;;;;;;4959241;28;51213;-58
2022/12/12 09:25:02;;;;;;;;;27.25;19.25;;;;;;;;4910569;28;51475;-58
2022/12/12 09:27:47;;;;;;;;;22.75;19.50;;;;;;;;4959477;28;51144;-57
2022/12/12 09:30:31;;;;;;;;;23.75;21.00;;;;;;;;4940250;28;51444;-56
2022/12/12 09:36:02;;;;;;;;;21.75;17.00;;;;;;;;4901497;28;51150;-55
2022/12/12 09:38:46;;;;;;;;;22.25;20.75;;;;;;;;4902115;28;51193;-56
2022/12/12 09:41:50;;;;;;;;;22.75;19.50;;;;;;;;4864013;29;51555;-56
2022/12/12 09:44:35;;;;;;;;;20.00;18.75;;;;;;;;4864020;29;51204;-57
2022/12/12 09:47:30;;;;;;;;;19.25;17.00;;;;;;;;4863570;29;51301;-56
2022/12/12 09:50:21;;;;;;;;;14.75;13.50;;;;;;;;4863707;29;51192;-56
2022/12/12 09:56:19;;;;;;;;;17.25;16.75;;;;;;;;4844813;29;51096;-57
2022/12/12 09:59:10;;;;;;;;;19.00;16.50;;;;;;;;4845146;29;51443;-56
2022/12/12 10:02:16;;;;;;;;;16.50;15.00;;;;;;;;4858976;29;51205;-56
2022/12/12 10:05:20;;;;;;;;;13.75;13.50;;;;;;;;4881992;29;51146;-58
2022/12/12 10:08:23;;;;;;;;;19.00;16.25;;;;;;;;4880159;29;51478;-55
2022/12/12 10:13:54;;;;;;;;;19.75;15.00;;;;;;;;4893141;28;53340;-58
2022/12/12 10:16:39;;;;;;;;;21.50;17.75;;;;;;;;4901095;28;51169;-56
2022/12/12 10:19:28;;;;;;;;;21.25;19.00;;;;;;;;4901407;28;51084;-56
2022/12/12 10:22:16;;;;;;;;;21.75;20.00;;;;;;;;4900772;28;51608;-57
2022/12/12 10:25:18;;;;;;;;;21.50;17.00;;;;;;;;4900622;28;51441;-57
2022/12/12 10:28:10;;;;;;;;;23.75;19.25;;;;;;;;4901028;28;51071;-57
2022/12/12 10:31:12;;;;;;;;;16.50;15.50;;;;;;;;4900915;28;51018;-56
2022/12/12 10:34:15;;;;;;;;;24.75;17.75;;;;;;;;4951399;28;51122;-49
2022/12/12 10:37:11;;;;;;;;;16.25;15.25;;;;;;;;4958261;28;51194;-48
2022/12/12 10:40:01;;;;;;;;;18.75;14.75;;;;;;;;4958782;28;51057;-52
2022/12/12 10:43:23;;;;;;;;;21.00;16.50;;;;;;;;4958619;28;51086;-53
2022/12/12 10:46:10;;;;;;;;;12.50;11.75;;;;;;;;4958770;28;51136;-52
2022/12/12 10:48:55;;;;;;;;;22.75;16.25;;;;;;;;4958242;28;51751;-49
2022/12/12 10:51:39;;;;;;;;;16.75;14.75;;;;;;;;5018659;28;51587;-51
2022/12/12 10:54:25;;;;;;;;;17.50;14.25;;;;;;;;5039381;28;51105;-51
2022/12/12 10:57:15;;;;;;;;;19.25;14.75;;;;;;;;5039294;28;51105;-51
2022/12/12 11:00:14;;;;;;;;;15.50;14.00;;;;;;;;5039600;28;50998;-50
2022/12/12 11:02:59;;;;;;;;;20.25;19.00;;;;;;;;5040145;28;51305;-49
2022/12/12 11:05:43;;;;;;;;;18.50;16.25;;;;;;;;5038087;28;51043;-51
2022/12/12 11:08:29;;;;;;;;;19.00;16.50;;;;;;;;5039061;28;51160;-50
2022/12/12 11:11:20;;;;;;;;;18.00;15.50;;;;;;;;5039951;28;51232;-51
2022/12/12 11:14:20;;;;;;;;;15.75;15.25;;;;;;;;5038925;28;51172;-49
2022/12/12 11:17:21;;;;;;;;;16.00;14.50;;;;;;;;5039721;28;51038;-51
2022/12/12 11:20:06;;;;;;;;;20.50;17.25;;;;;;;;5039514;28;51204;-54
2022/12/12 11:22:52;;;;;;;;;20.50;17.25;;;;;;;;5039588;28;51120;-51
2022/12/12 11:25:36;;;;;;;;;25.50;21.25;;;;;;;;5039213;28;51342;-51
2022/12/12 11:28:26;;;;;;;;;21.50;18.00;;;;;;;;5039481;28;51063;-50
2022/12/12 11:31:13;;;;;;;;;16.00;14.50;;;;;;;;5039279;28;51084;-49
2022/12/12 11:33:59;;;;;;;;;18.25;17.75;;;;;;;;5038833;28;51309;-48
2022/12/12 11:36:43;;;;;;;;;17.00;15.75;;;;;;;;5040172;28;51121;-51
2022/12/12 11:39:31;;;;;;;;;20.00;17.00;;;;;;;;5038103;28;51465;-52
2022/12/12 11:42:36;;;;;;;;;17.50;15.00;;;;;;;;5039698;28;51453;-50
2022/12/12 11:45:22;;;;;;;;;18.25;14.75;;;;;;;;5041585;28;51244;-50
2022/12/12 11:48:42;;;;;;;;;17.75;15.25;;;;;;;;5041262;28;51165;-52
2022/12/12 11:51:31;;;;;;;;;19.25;15.25;;;;;;;;5019440;28;51082;-49
2022/12/12 11:54:29;;;;;;;;;20.75;15.50;;;;;;;;5042195;28;51231;-51
2022/12/12 11:57:27;;;;;;;;;19.50;16.75;;;;;;;;5042167;28;51066;-49
2022/12/12 12:00:11;;;;;;;;;18.50;15.50;;;;;;;;5041146;28;51208;-48
2022/12/12 12:03:11;;;;;;;;;20.50;14.25;;;;;;;;5041063;28;51149;-50
2022/12/12 12:06:05;;;;;;;;;25.75;21.75;;;;;;;;5041232;28;51227;-47
2022/12/12 12:08:52;;;;;;;;;20.00;16.50;;;;;;;;5054755;28;51389;-51
2022/12/12 12:11:56;;;;;;;;;20.25;18.75;;;;;;;;5054708;28;51080;-49
2022/12/12 12:14:57;;;;;;;;;20.25;18.50;;;;;;;;5042697;28;50995;-50
2022/12/12 12:18:00;;;;;;;;;23.00;18.50;;;;;;;;5042217;28;51428;-50
2022/12/12 12:21:02;;;;;;;;;19.50;14.00;;;;;;;;5042184;28;51074;-47
2022/12/12 12:24:02;;;;;;;;;21.25;17.00;;;;;;;;5042407;28;51366;-51
2022/12/12 12:27:05;;;;;;;;;14.75;14.75;;;;;;;;5042166;28;51062;-48
2022/12/12 12:30:08;;;;;;;;;21.75;16.25;;;;;;;;5042351;28;51081;-48
2022/12/12 12:33:11;;;;;;;;;17.00;15.00;;;;;;;;5042159;28;51173;-47
2022/12/12 12:36:17;;;;;;;;;20.75;17.25;;;;;;;;5041956;28;51027;-51
2022/12/12 12:39:05;;;;;;;;;20.00;14.50;;;;;;;;5041847;28;51025;-49
2022/12/12 12:41:55;;;;;;;;;18.25;17.00;;;;;;;;5042204;28;51238;-48
2022/12/12 12:44:50;;;;;;;;;23.25;19.50;;;;;;;;5041893;28;51408;-47
2022/12/12 12:47:42;;;;;;;;;18.50;18.25;;;;;;;;5041966;28;51055;-49
2022/12/12 12:50:33;;;;;;;;;18.75;16.00;;;;;;;;5041361;28;51470;-47
2022/12/12 12:53:20;;;;;;;;;19.50;19.25;;;;;;;;5041247;28;51163;-49
2022/12/12 12:56:14;;;;;;;;;19.75;17.75;;;;;;;;5041656;28;51160;-47
2022/12/12 12:59:00;;;;;;;;;20.25;18.50;;;;;;;;5041641;28;51169;-46
2022/12/12 13:01:46;;;;;;;;;21.25;18.50;;;;;;;;5041691;28;51355;-48
2022/12/12 13:04:36;;;;;;;;;14.25;12.75;;;;;;;;5041295;28;51138;-49
2022/12/12 13:07:42;;;;;;;;;14.75;13.75;;;;;;;;5041152;28;51699;-48
2022/12/12 13:10:28;;;;;;;;;22.50;18.00;;;;;;;;5041033;28;51424;-48
2022/12/12 13:13:29;;;;;;;;;17.50;15.50;;;;;;;;5041510;28;51132;-47
2022/12/12 13:16:22;;;;;;;;;21.00;18.75;;;;;;;;5041249;28;51266;-52
2022/12/12 13:19:10;;;;;;;;;20.50;17.25;;;;;;;;5040990;28;51117;-49
2022/12/12 13:22:00;;;;;;;;;16.00;14.00;;;;;;;;5041082;28;51006;-50
2022/12/12 13:24:54;;;;;;;;;18.00;16.75;;;;;;;;5041402;28;51028;-49
2022/12/12 13:27:44;;;;;;;;;20.25;16.25;;;;;;;;5041397;28;51035;-48
2022/12/12 13:30:28;;;;;;;;;18.25;17.00;;;;;;;;5040789;28;51147;-48
2022/12/12 13:33:19;;;;;;;;;24.25;18.25;;;;;;;;5041262;28;51133;-47
2022/12/12 13:36:09;;;;;;;;;21.50;19.00;;;;;;;;5040632;28;51377;-48
2022/12/12 13:38:56;;;;;;;;;22.00;18.50;;;;;;;;5040784;28;51106;-51
2022/12/12 13:41:52;;;;;;;;;24.50;19.50;;;;;;;;5040710;28;51041;-49
2022/12/12 13:44:38;;;;;;;;;17.25;16.50;;;;;;;;5040493;28;51115;-52
2022/12/12 13:47:22;;;;;;;;;18.50;15.75;;;;;;;;5040547;28;51462;-47
2022/12/12 13:50:10;;;;;;;;;21.25;18.25;;;;;;;;5040539;28;51134;-47
2022/12/12 13:53:06;;;;;;;;;25.75;19.00;;;;;;;;5040716;28;51383;-51
2022/12/12 13:56:10;;;;;;;;;21.00;18.00;;;;;;;;5040062;28;51098;-51
2022/12/12 13:58:54;;;;;;;;;20.75;19.25;;;;;;;;5040829;28;51121;-45
